createdAt,value
2019-05-15T00:00:21.165Z,100.00
2019-05-15T00:02:49.644Z,100.00
2019-05-15T00:05:18.844Z,100.00
2019-05-15T00:07:48.442Z,100.00
2019-05-15T00:10:18.114Z,100.00
2019-05-15T00:12:48.617Z,100.00
2019-05-15T00:15:18.246Z,100.00
2019-05-15T00:17:48.494Z,100.00
2019-05-15T00:20:20.056Z,100.00
2019-05-15T00:22:48.442Z,100.00
2019-05-15T00:25:18.858Z,100.00
2019-05-15T00:27:49.104Z,100.00
2019-05-15T00:30:18.490Z,100.00
2019-05-15T00:32:48.718Z,100.00
2019-05-15T00:35:18.441Z,100.00
2019-05-15T00:37:49.244Z,100.00
2019-05-15T00:40:18.528Z,100.00
2019-05-15T00:42:48.799Z,100.00
2019-05-15T00:45:18.648Z,100.00
2019-05-15T00:47:48.656Z,100.00
2019-05-15T00:50:18.234Z,100.00
2019-05-15T00:52:48.492Z,100.00
2019-05-15T00:55:19.050Z,100.00
2019-05-15T00:57:48.544Z,100.00
2019-05-15T01:00:41.315Z,100.00
2019-05-15T01:03:10.110Z,100.00
2019-05-15T01:05:38.923Z,100.00
2019-05-15T01:08:08.187Z,100.00
2019-05-15T01:10:38.595Z,100.00
2019-05-15T01:13:08.344Z,100.00
2019-05-15T01:15:38.679Z,100.00
2019-05-15T01:18:09.325Z,100.00
2019-05-15T01:20:39.142Z,100.00
2019-05-15T01:23:08.910Z,100.00
2019-05-15T01:25:39.010Z,100.00
2019-05-15T01:28:09.479Z,100.00
2019-05-15T01:30:39.295Z,100.00
2019-05-15T01:33:08.475Z,100.00
2019-05-15T01:35:38.422Z,100.00
2019-05-15T01:38:08.119Z,100.00
2019-05-15T01:40:38.464Z,100.00
2019-05-15T01:43:09.235Z,100.00
2019-05-15T01:45:39.433Z,100.00
2019-05-15T01:48:08.353Z,100.00
2019-05-15T01:50:38.887Z,100.00
2019-05-15T01:53:08.272Z,100.00
2019-05-15T01:55:39.291Z,100.00
2019-05-15T01:58:33.348Z,100.00
2019-05-15T02:01:01.962Z,100.00
2019-05-15T02:03:31.919Z,100.00
2019-05-15T02:06:00.595Z,100.00
2019-05-15T02:08:29.113Z,100.00
2019-05-15T02:10:58.819Z,100.00
2019-05-15T02:13:28.252Z,100.00
2019-05-15T02:15:58.915Z,100.00
2019-05-15T02:18:28.531Z,100.00
2019-05-15T02:20:58.715Z,100.00
2019-05-15T02:23:28.038Z,100.00
2019-05-15T02:25:58.749Z,100.00
2019-05-15T02:28:28.930Z,100.00
2019-05-15T02:30:58.753Z,100.00
2019-05-15T02:33:30.078Z,100.00
2019-05-15T02:35:59.471Z,100.00
2019-05-15T02:38:29.686Z,100.00
2019-05-15T02:40:59.317Z,100.00
2019-05-15T02:43:29.799Z,100.00
2019-05-15T02:46:00.390Z,100.00
2019-05-15T02:48:29.154Z,100.00
2019-05-15T02:50:58.942Z,100.00
2019-05-15T02:53:29.947Z,100.00
2019-05-15T02:56:00.190Z,100.00
2019-05-15T02:58:29.408Z,100.00
2019-05-15T03:00:59.364Z,100.00
2019-05-15T03:03:29.515Z,100.00
2019-05-15T03:06:00.235Z,100.00
2019-05-15T03:08:29.851Z,100.00
2019-05-15T03:10:59.423Z,100.00
2019-05-15T03:13:29.962Z,100.00
2019-05-15T03:15:59.788Z,100.00
2019-05-15T03:18:29.137Z,100.00
2019-05-15T03:21:00.385Z,100.00
2019-05-15T03:23:29.598Z,100.00
2019-05-15T03:26:02.935Z,100.00
2019-05-15T03:28:29.570Z,100.00
2019-05-15T03:31:32.593Z,100.00
2019-05-15T03:33:35.840Z,100.00
2019-05-15T03:36:02.562Z,100.00
2019-05-15T03:38:30.284Z,100.00
2019-05-15T03:40:59.779Z,100.00
2019-05-15T03:43:29.180Z,100.00
2019-05-15T03:46:01.243Z,100.00
2019-05-15T03:48:29.002Z,100.00
2019-05-15T03:50:59.760Z,100.00
2019-05-15T03:53:29.941Z,100.00
2019-05-15T03:55:59.165Z,100.00
2019-05-15T03:58:28.756Z,100.00
2019-05-15T04:01:00.282Z,100.00
2019-05-15T04:03:29.912Z,100.00
2019-05-15T04:06:00.453Z,100.00
2019-05-15T04:08:29.897Z,100.00
2019-05-15T04:10:59.702Z,100.00
2019-05-15T04:13:30.100Z,100.00
2019-05-15T04:15:59.565Z,100.00
2019-05-15T04:18:29.113Z,100.00
2019-05-15T04:21:00.120Z,100.00
2019-05-15T04:23:30.128Z,100.00
2019-05-15T04:25:59.076Z,100.00
2019-05-15T04:28:30.891Z,100.00
2019-05-15T04:30:59.843Z,100.00
2019-05-15T04:33:29.519Z,100.00
2019-05-15T04:35:58.926Z,100.00
2019-05-15T04:38:29.359Z,100.00
2019-05-15T04:40:59.119Z,100.00
2019-05-15T04:43:29.420Z,100.00
2019-05-15T04:46:02.804Z,100.00
2019-05-15T04:48:29.231Z,100.00
2019-05-15T04:50:58.827Z,100.00
2019-05-15T04:53:29.699Z,100.00
2019-05-15T04:55:59.764Z,100.00
2019-05-15T04:58:29.680Z,100.00
2019-05-15T05:00:59.934Z,100.00
2019-05-15T05:03:29.534Z,100.00
2019-05-15T05:05:59.200Z,100.00
2019-05-15T05:08:29.175Z,100.00
2019-05-15T05:10:59.217Z,100.00
2019-05-15T05:13:28.871Z,100.00
2019-05-15T05:15:58.656Z,100.00
2019-05-15T05:18:29.731Z,100.00
2019-05-15T05:20:58.004Z,100.00
2019-05-15T05:23:28.334Z,100.00
2019-05-15T05:25:58.108Z,100.00
2019-05-15T05:28:28.930Z,100.00
2019-05-15T05:30:58.813Z,100.00
2019-05-15T05:33:28.711Z,100.00
2019-05-15T05:35:58.353Z,100.00
2019-05-15T05:38:28.198Z,100.00
2019-05-15T05:40:58.738Z,100.00
2019-05-15T05:43:29.807Z,100.00
2019-05-15T05:45:58.293Z,100.00
2019-05-15T05:48:29.071Z,100.00
2019-05-15T05:50:58.417Z,100.00
2019-05-15T05:53:28.668Z,100.00
2019-05-15T05:55:58.016Z,100.00
2019-05-15T05:58:29.467Z,100.00
2019-05-15T06:00:58.562Z,100.00
2019-05-15T06:03:28.180Z,100.00
2019-05-15T06:05:59.058Z,100.00
2019-05-15T06:08:28.231Z,100.00
2019-05-15T06:10:58.538Z,100.00
2019-05-15T06:13:29.108Z,100.00
2019-05-15T06:15:59.067Z,100.00
2019-05-15T06:18:28.263Z,100.00
2019-05-15T06:20:58.616Z,100.00
2019-05-15T06:23:33.701Z,100.00
2019-05-15T06:25:59.211Z,100.00
2019-05-15T06:28:28.933Z,100.00
2019-05-15T06:31:00.780Z,100.00
2019-05-15T06:33:28.009Z,100.00
2019-05-15T06:35:59.066Z,100.00
2019-05-15T06:38:31.023Z,100.00
2019-05-15T06:40:58.253Z,100.00
2019-05-15T06:43:28.031Z,100.00
2019-05-15T06:45:58.484Z,100.00
2019-05-15T06:48:28.911Z,100.00
2019-05-15T06:50:58.050Z,100.00
2019-05-15T06:53:28.848Z,100.00
2019-05-15T06:55:58.480Z,100.00
2019-05-15T06:58:29.009Z,100.00
2019-05-15T07:00:59.258Z,100.00
2019-05-15T07:03:29.376Z,100.00
2019-05-15T07:05:59.758Z,100.00
2019-05-15T07:08:28.890Z,100.00
2019-05-15T07:10:57.946Z,100.00
2019-05-15T07:13:28.858Z,100.00
2019-05-15T07:15:58.493Z,100.00
2019-05-15T07:18:28.342Z,100.00
2019-05-15T07:20:58.064Z,100.00
2019-05-15T07:23:30.361Z,100.00
2019-05-15T07:25:58.716Z,100.00
2019-05-15T07:28:28.847Z,100.00
2019-05-15T07:30:58.373Z,100.00
2019-05-15T07:33:38.712Z,100.00
2019-05-15T07:35:59.150Z,100.00
2019-05-15T07:38:28.279Z,100.00
2019-05-15T07:41:03.391Z,100.00
2019-05-15T07:43:28.153Z,100.00
2019-05-15T07:45:59.026Z,100.00
2019-05-15T07:48:29.062Z,100.00
2019-05-15T07:50:59.497Z,100.00
2019-05-15T07:53:28.854Z,100.00
2019-05-15T07:56:01.138Z,100.00
2019-05-15T07:58:28.301Z,100.00
2019-05-15T08:00:59.062Z,100.00
2019-05-15T08:03:29.287Z,100.00
2019-05-15T08:06:02.088Z,100.00
2019-05-15T08:08:29.082Z,100.00
2019-05-15T08:10:58.387Z,100.00
2019-05-15T08:13:28.958Z,100.00
2019-05-15T08:15:58.012Z,100.00
2019-05-15T08:18:28.642Z,100.00
2019-05-15T08:20:58.554Z,100.00
2019-05-15T08:23:28.407Z,100.00
2019-05-15T08:25:57.920Z,100.00
2019-05-15T08:28:28.668Z,100.00
2019-05-15T08:30:58.373Z,100.00
2019-05-15T08:33:28.029Z,100.00
2019-05-15T08:35:58.783Z,100.00
2019-05-15T08:38:28.775Z,100.00
2019-05-15T08:40:59.283Z,100.00
2019-05-15T08:43:29.101Z,100.00
2019-05-15T08:45:58.775Z,100.00
2019-05-15T08:48:27.813Z,100.00
2019-05-15T08:50:57.944Z,100.00
2019-05-15T08:53:28.551Z,100.00
2019-05-15T08:55:58.774Z,100.00
2019-05-15T08:58:29.141Z,100.00
2019-05-15T09:00:58.642Z,100.00
2019-05-15T09:03:28.654Z,100.00
2019-05-15T09:05:59.022Z,100.00
2019-05-15T09:08:29.376Z,100.00
2019-05-15T09:10:58.742Z,100.00
2019-05-15T09:13:29.275Z,100.00
2019-05-15T09:15:58.890Z,100.00
2019-05-15T09:18:28.380Z,100.00
2019-05-15T09:20:59.371Z,100.00
2019-05-15T09:23:28.939Z,100.00
2019-05-15T09:25:58.058Z,100.00
2019-05-15T09:28:29.287Z,100.00
2019-05-15T09:30:59.042Z,100.00
2019-05-15T09:33:28.613Z,100.00
2019-05-15T09:35:58.403Z,100.00
2019-05-15T09:38:28.915Z,100.00
2019-05-15T09:40:58.511Z,100.00
2019-05-15T09:43:28.495Z,100.00
2019-05-15T09:45:58.353Z,100.00
2019-05-15T09:48:28.646Z,100.00
2019-05-15T09:50:58.781Z,100.00
2019-05-15T09:53:28.562Z,100.00
2019-05-15T09:55:59.755Z,100.00
2019-05-15T09:58:30.051Z,100.00
2019-05-15T10:00:58.183Z,100.00
2019-05-15T10:03:28.175Z,100.00
2019-05-15T10:05:57.003Z,100.00
2019-05-15T10:08:25.595Z,100.00
2019-05-15T10:10:54.048Z,100.00
2019-05-15T10:13:22.538Z,100.00
2019-05-15T10:15:51.362Z,100.00
2019-05-15T10:18:19.991Z,100.00
2019-05-15T10:20:48.686Z,100.00
2019-05-15T10:23:19.514Z,100.00
2019-05-15T10:25:48.540Z,100.00
2019-05-15T10:28:18.737Z,100.00
2019-05-15T10:30:49.368Z,100.00
2019-05-15T10:33:19.655Z,100.00
2019-05-15T10:35:48.737Z,100.00
2019-05-15T10:38:19.248Z,100.00
2019-05-15T10:41:00.242Z,100.00
2019-05-15T10:43:20.723Z,100.00
2019-05-15T10:45:50.061Z,100.00
2019-05-15T10:48:19.270Z,100.00
2019-05-15T10:50:47.994Z,100.00
2019-05-15T10:53:18.842Z,100.00
2019-05-15T10:55:49.555Z,100.00
2019-05-15T10:58:21.759Z,100.00
2019-05-15T11:00:49.406Z,100.00
2019-05-15T11:03:19.974Z,100.00
2019-05-15T11:05:49.132Z,100.00
2019-05-15T11:08:18.835Z,100.00
2019-05-15T11:10:49.494Z,100.00
2019-05-15T11:13:18.953Z,100.00
2019-05-15T11:15:49.101Z,100.00
2019-05-15T11:18:18.241Z,100.00
2019-05-15T11:20:48.700Z,100.00
2019-05-15T11:23:19.886Z,100.00
2019-05-15T11:25:48.785Z,100.00
2019-05-15T11:28:17.590Z,100.00
2019-05-15T11:30:48.874Z,100.00
2019-05-15T11:33:18.842Z,100.00
2019-05-15T11:35:58.230Z,100.00
2019-05-15T11:38:19.434Z,100.00
2019-05-15T11:40:48.203Z,100.00
2019-05-15T11:43:59.021Z,100.00
2019-05-15T11:46:29.136Z,100.00
2019-05-15T11:52:49.526Z,100.00
2019-05-15T11:55:18.252Z,100.00
2019-05-15T11:57:50.920Z,100.00
2019-05-15T12:00:26.576Z,100.00
2019-05-15T12:02:48.394Z,100.00
2019-05-15T12:05:18.236Z,100.00
2019-05-15T12:07:47.796Z,100.00
2019-05-15T12:10:18.466Z,100.00
2019-05-15T12:12:49.729Z,100.00
2019-05-15T12:15:19.078Z,100.00
2019-05-15T12:17:48.616Z,100.00
2019-05-15T12:20:19.278Z,100.00
2019-05-15T12:22:48.712Z,100.00
2019-05-15T12:25:17.743Z,100.00
2019-05-15T12:27:49.067Z,100.00
2019-05-15T12:30:19.965Z,100.00
2019-05-15T12:32:49.340Z,100.00
2019-05-15T12:35:20.495Z,100.00
2019-05-15T12:37:48.739Z,100.00
2019-05-15T13:00:24.623Z,100.00
2019-05-15T13:02:53.105Z,100.00
2019-05-15T13:05:21.707Z,100.00
2019-05-15T13:07:50.336Z,100.00
2019-05-15T13:10:19.130Z,100.00
2019-05-15T13:12:57.269Z,100.00
2019-05-15T13:15:19.017Z,100.00
2019-05-15T13:17:52.955Z,100.00
2019-05-15T13:20:18.632Z,100.00
2019-05-15T13:25:18.677Z,100.00
2019-05-15T13:27:48.834Z,100.00
2019-05-15T13:30:18.482Z,100.00
2019-05-15T13:32:49.745Z,100.00
2019-05-15T13:35:18.403Z,100.00
2019-05-15T13:37:49.449Z,100.00
2019-05-15T13:40:18.910Z,100.00
2019-05-15T13:42:48.574Z,100.00
2019-05-15T13:45:18.389Z,100.00
2019-05-15T13:47:47.007Z,100.00
2019-05-15T13:50:15.706Z,100.00
2019-05-15T13:52:44.838Z,100.00
2019-05-15T13:55:13.557Z,100.00
2019-05-15T13:57:42.113Z,100.00
2019-05-15T14:00:11.485Z,100.00
2019-05-15T14:02:40.279Z,100.00
2019-05-15T14:05:09.854Z,97.57
2019-05-15T14:07:48.945Z,94.82
2019-05-15T14:10:10.153Z,95.39
2019-05-15T14:12:38.667Z,94.12
2019-05-15T14:15:09.161Z,92.92
2019-05-15T14:17:37.814Z,93.71
2019-05-15T14:20:09.139Z,93.72
2019-05-15T14:22:39.035Z,94.01
2019-05-15T14:25:08.837Z,95.34
2019-05-15T14:27:39.694Z,95.76
2019-05-15T14:30:09.540Z,93.92
2019-05-15T14:32:39.279Z,91.08
2019-05-15T14:35:09.315Z,90.38
2019-05-15T14:37:38.038Z,88.86
2019-05-15T14:40:08.894Z,87.98
2019-05-15T14:42:39.494Z,86.20
2019-05-15T14:45:09.815Z,81.83
2019-05-15T14:47:39.129Z,77.04
2019-05-15T14:50:10.163Z,78.23
2019-05-15T14:52:38.961Z,75.77
2019-05-15T14:55:09.861Z,75.53
2019-05-15T14:57:39.140Z,76.18
2019-05-15T15:00:10.091Z,72.87
2019-05-15T15:02:39.258Z,73.65
2019-05-15T15:05:09.009Z,73.80
2019-05-15T15:07:38.171Z,75.53
2019-05-15T15:10:08.157Z,76.36
2019-05-15T15:12:39.521Z,76.17
2019-05-15T15:15:10.019Z,73.99
2019-05-15T15:17:38.925Z,75.32
2019-05-15T15:20:08.529Z,73.91
2019-05-15T15:22:39.445Z,74.35
2019-05-15T15:25:09.518Z,73.78
2019-05-15T15:27:39.063Z,72.23
2019-05-15T15:30:09.156Z,73.02
2019-05-15T15:32:38.325Z,74.41
2019-05-15T15:35:08.543Z,72.66
2019-05-15T15:37:38.182Z,73.20
2019-05-15T15:40:08.269Z,72.02
2019-05-15T15:42:39.384Z,73.12
2019-05-15T15:45:10.459Z,72.97
2019-05-15T15:47:39.254Z,74.01
2019-05-15T15:50:09.556Z,72.61
2019-05-15T15:52:38.799Z,74.15
2019-05-15T15:55:09.296Z,72.95
2019-05-15T15:57:39.885Z,76.16
2019-05-15T16:00:09.781Z,75.79
2019-05-15T16:02:41.094Z,74.57
2019-05-15T16:05:09.427Z,74.98
2019-05-15T16:07:38.221Z,75.01
2019-05-15T16:10:08.417Z,75.08
2019-05-15T16:12:38.719Z,75.09
2019-05-15T16:15:09.046Z,74.91
2019-05-15T16:17:38.488Z,76.73
2019-05-15T16:20:09.641Z,75.07
2019-05-15T16:22:38.608Z,74.83
2019-05-15T16:25:09.766Z,75.13
2019-05-15T16:27:38.782Z,74.73
2019-05-15T16:30:08.487Z,75.69
2019-05-15T16:32:38.819Z,78.92
2019-05-15T16:35:09.973Z,77.28
2019-05-15T16:37:39.194Z,77.39
2019-05-15T16:40:08.702Z,77.03
2019-05-15T16:42:38.584Z,77.29
2019-05-15T16:45:09.303Z,79.04
2019-05-15T16:47:38.767Z,77.00
2019-05-15T16:50:08.930Z,81.16
2019-05-15T16:52:38.746Z,82.28
2019-05-15T16:55:09.758Z,79.30
2019-05-15T16:57:39.111Z,79.60
2019-05-15T17:00:10.231Z,83.45
2019-05-15T17:02:39.583Z,78.57
2019-05-15T17:05:09.025Z,83.63
2019-05-15T17:07:38.763Z,78.64
2019-05-15T17:10:08.755Z,82.78
2019-05-15T17:12:38.687Z,78.75
2019-05-15T17:15:08.614Z,78.82
2019-05-15T17:17:38.644Z,79.46
2019-05-15T17:20:09.709Z,81.86
2019-05-15T17:22:38.882Z,80.12
2019-05-15T17:25:09.341Z,81.06
2019-05-15T17:27:38.299Z,79.31
2019-05-15T17:30:09.298Z,81.17
2019-05-15T17:32:38.998Z,80.36
2019-05-15T17:35:10.060Z,82.15
2019-05-15T17:37:39.049Z,82.46
2019-05-15T17:40:08.270Z,81.83
2019-05-15T17:42:38.985Z,82.06
2019-05-15T17:45:09.359Z,83.71
2019-05-15T17:47:39.426Z,81.79
2019-05-15T17:50:10.022Z,85.57
2019-05-15T17:52:39.045Z,87.18
2019-05-15T17:55:07.871Z,85.92
2019-05-15T17:57:38.638Z,88.29
2019-05-15T18:00:11.614Z,87.85
2019-05-15T18:02:38.623Z,89.87
2019-05-15T18:05:07.845Z,88.27
2019-05-15T18:07:38.856Z,89.05
2019-05-15T18:10:08.406Z,91.43
2019-05-15T18:12:38.865Z,89.33
2019-05-15T18:15:08.976Z,92.69
2019-05-15T18:17:39.145Z,92.86
2019-05-15T18:20:10.402Z,93.37
2019-05-15T18:22:39.321Z,94.27
2019-05-15T18:25:09.108Z,93.51
2019-05-15T18:27:38.832Z,94.15
2019-05-15T18:30:09.194Z,94.29
2019-05-15T18:32:39.060Z,93.99
2019-05-15T18:35:08.757Z,95.33
2019-05-15T18:37:39.458Z,95.61
2019-05-15T18:40:10.032Z,97.07
2019-05-15T18:42:39.335Z,96.31
2019-05-15T18:45:08.927Z,97.78
2019-05-15T18:47:39.043Z,98.62
2019-05-15T18:50:13.167Z,99.27
2019-05-15T18:52:39.185Z,99.36
2019-05-15T18:55:08.398Z,100.00
2019-05-15T18:57:38.569Z,99.83
2019-05-15T19:00:09.184Z,99.13
2019-05-15T19:02:39.279Z,100.00
2019-05-15T19:05:08.652Z,100.00
2019-05-15T19:07:38.370Z,100.00
2019-05-15T19:10:08.193Z,100.00
2019-05-15T19:12:37.910Z,100.00
2019-05-15T19:15:09.233Z,100.00
2019-05-15T19:17:38.848Z,100.00
2019-05-15T19:20:08.633Z,100.00
2019-05-15T19:22:40.578Z,100.00
2019-05-15T19:25:10.493Z,100.00
2019-05-15T19:27:39.588Z,100.00
2019-05-15T19:30:08.871Z,100.00
2019-05-15T19:32:38.769Z,100.00
2019-05-15T19:35:08.193Z,100.00
2019-05-15T19:37:38.614Z,100.00
2019-05-15T19:40:08.025Z,99.58
2019-05-15T19:42:38.314Z,99.26
2019-05-15T19:45:08.586Z,100.00
2019-05-15T19:47:38.786Z,100.00
2019-05-15T19:50:09.788Z,100.00
2019-05-15T19:52:38.792Z,100.00
2019-05-15T19:55:08.843Z,100.00
2019-05-15T19:57:39.024Z,100.00
2019-05-15T20:00:08.754Z,100.00
2019-05-15T20:02:38.164Z,100.00
2019-05-15T20:05:09.158Z,100.00
2019-05-15T20:07:39.006Z,100.00
2019-05-15T20:10:09.796Z,100.00
2019-05-15T20:12:39.284Z,100.00
2019-05-15T20:15:09.474Z,100.00
2019-05-15T20:17:38.985Z,100.00
2019-05-15T20:20:08.907Z,98.22
2019-05-15T20:22:40.235Z,99.35
2019-05-15T20:25:10.220Z,100.00
2019-05-15T20:27:41.842Z,100.00
2019-05-15T20:30:11.409Z,100.00
2019-05-15T20:32:40.133Z,100.00
2019-05-15T20:35:08.954Z,100.00
2019-05-15T20:37:40.428Z,100.00
2019-05-15T20:40:09.903Z,100.00
2019-05-15T20:42:38.846Z,100.00
2019-05-15T20:45:11.666Z,100.00
2019-05-15T20:47:38.858Z,100.00
2019-05-15T20:50:08.852Z,100.00
2019-05-15T20:52:39.477Z,100.00
2019-05-15T20:55:08.465Z,100.00
2019-05-15T20:57:40.050Z,99.78
2019-05-15T21:00:10.693Z,100.00
2019-05-15T21:02:39.191Z,100.00
2019-05-15T21:05:08.688Z,99.44
2019-05-15T21:07:39.955Z,98.41
2019-05-15T21:10:09.154Z,98.73
2019-05-15T21:12:41.028Z,98.09
2019-05-15T21:15:09.456Z,99.71
2019-05-15T21:17:39.669Z,98.94
2019-05-15T21:20:09.863Z,97.21
2019-05-15T21:22:40.173Z,98.85
2019-05-15T21:25:10.806Z,99.94
2019-05-15T21:27:42.291Z,99.78
2019-05-15T21:30:10.850Z,99.43
2019-05-15T21:32:39.240Z,99.92
2019-05-15T21:35:09.040Z,100.00
2019-05-15T21:37:38.958Z,100.00
2019-05-15T21:40:08.467Z,100.00
2019-05-15T21:42:39.024Z,100.00
2019-05-15T21:45:14.225Z,100.00
2019-05-15T21:47:38.973Z,100.00
2019-05-15T21:50:08.174Z,99.65
2019-05-15T21:52:38.947Z,100.00
2019-05-15T21:55:09.275Z,100.00
2019-05-15T21:57:40.448Z,100.00
2019-05-15T22:00:17.893Z,100.00
2019-05-15T22:02:49.145Z,100.00
2019-05-15T22:05:19.085Z,100.00
2019-05-15T22:07:47.819Z,100.00
2019-05-15T22:10:19.394Z,100.00
2019-05-15T22:12:48.501Z,100.00
2019-05-15T22:15:19.058Z,100.00
2019-05-15T22:17:49.286Z,100.00
2019-05-15T22:20:18.946Z,100.00
2019-05-15T22:22:50.354Z,100.00
2019-05-15T22:25:18.967Z,100.00
2019-05-15T22:27:48.703Z,100.00
2019-05-15T22:30:19.160Z,100.00
2019-05-15T22:32:49.513Z,100.00
2019-05-15T22:35:19.013Z,100.00
2019-05-15T22:37:49.289Z,100.00
2019-05-15T22:40:18.483Z,100.00
2019-05-15T22:42:48.583Z,100.00
2019-05-15T22:45:18.390Z,100.00
2019-05-15T22:47:48.389Z,100.00
2019-05-15T22:50:18.843Z,100.00
2019-05-15T22:52:49.315Z,100.00
2019-05-15T22:55:18.517Z,100.00
2019-05-15T22:57:48.191Z,100.00
2019-05-15T23:00:18.158Z,100.00
2019-05-15T23:02:48.853Z,100.00
2019-05-15T23:05:25.116Z,100.00
2019-05-15T23:07:48.308Z,100.00
2019-05-15T23:10:17.270Z,100.00
2019-05-15T23:12:45.843Z,100.00
2019-05-15T23:15:14.466Z,100.00
2019-05-15T23:17:43.253Z,100.00
2019-05-15T23:20:12.022Z,100.00
2019-05-15T23:22:40.750Z,100.00
2019-05-15T23:25:09.532Z,100.00
2019-05-15T23:27:38.846Z,100.00
2019-05-15T23:30:09.073Z,100.00
2019-05-15T23:32:39.088Z,100.00
2019-05-15T23:35:08.268Z,100.00
2019-05-15T23:37:39.271Z,100.00
2019-05-15T23:40:08.887Z,100.00
2019-05-15T23:42:39.067Z,100.00
2019-05-15T23:45:08.086Z,100.00
2019-05-15T23:47:38.393Z,100.00
2019-05-15T23:50:07.081Z,100.00
2019-05-15T23:52:35.590Z,100.00
2019-05-15T23:55:04.405Z,100.00
2019-05-15T23:57:33.130Z,100.00
